createdAt,value
2022-08-10T00:01:38.448Z,86.61
2022-08-10T00:04:44.809Z,90.12
2022-08-10T00:07:51.117Z,94.76
2022-08-10T00:10:59.615Z,93.54
2022-08-10T00:14:07.743Z,90.87
2022-08-10T00:17:14.131Z,88.49
2022-08-10T00:20:20.655Z,95.62
2022-08-10T00:23:26.984Z,91.42
2022-08-10T00:27:52.603Z,94.35
2022-08-10T00:30:01.268Z,95.56
2022-08-10T00:33:07.280Z,98.60
2022-08-10T00:36:13.502Z,97.38
2022-08-10T00:39:19.799Z,95.23
2022-08-10T00:42:27.472Z,92.51
2022-08-10T00:45:33.963Z,93.99
2022-08-10T00:48:40.256Z,89.71
2022-08-10T00:51:48.312Z,88.18
2022-08-10T00:54:56.307Z,88.92
2022-08-10T00:58:04.163Z,86.54
2022-08-10T01:02:07.905Z,86.76
2022-08-10T01:04:59.565Z,83.41
2022-08-10T01:08:27.437Z,84.65
2022-08-10T01:12:39.964Z,83.75
2022-08-10T01:15:15.791Z,81.48
2022-08-10T01:18:34.782Z,84.55
2022-08-10T01:22:19.005Z,83.01
2022-08-10T01:26:11.725Z,83.65
2022-08-10T01:29:59.312Z,86.63
2022-08-10T01:33:09.763Z,87.94
2022-08-10T01:36:20.658Z,86.25
2022-08-10T01:39:41.783Z,86.73
2022-08-10T01:42:49.392Z,83.35
2022-08-10T01:46:00.876Z,84.44
2022-08-10T01:49:11.930Z,85.28
2022-08-10T01:52:22.123Z,85.72
2022-08-10T01:55:30.342Z,86.41
2022-08-10T01:58:38.535Z,88.45
2022-08-10T02:01:50.419Z,94.36
2022-08-10T02:04:59.680Z,99.14
2022-08-10T02:08:09.197Z,100.00
2022-08-10T02:11:17.385Z,99.07
2022-08-10T02:14:26.111Z,98.01
2022-08-10T02:17:58.287Z,97.63
2022-08-10T02:21:08.747Z,92.70
2022-08-10T02:24:17.329Z,94.24
2022-08-10T02:27:26.309Z,94.22
2022-08-10T02:30:34.567Z,93.61
2022-08-10T02:33:56.895Z,95.11
2022-08-10T02:37:11.072Z,93.68
2022-08-10T02:45:15.945Z,91.55
2022-08-10T02:45:21.688Z,90.85
2022-08-10T02:47:51.338Z,92.37
2022-08-10T02:51:06.714Z,92.86
2022-08-10T02:54:28.072Z,93.35
2022-08-10T02:58:16.636Z,95.03
2022-08-10T03:01:10.390Z,100.00
2022-08-10T03:04:20.865Z,100.00
2022-08-10T03:07:52.353Z,100.00
2022-08-10T03:11:03.428Z,100.00
2022-08-10T03:14:12.078Z,100.00
2022-08-10T03:17:19.423Z,100.00
2022-08-10T03:20:37.374Z,100.00
2022-08-10T03:23:47.708Z,99.22
2022-08-10T03:26:55.195Z,100.00
2022-08-10T03:30:31.803Z,100.00
2022-08-10T03:33:30.816Z,100.00
2022-08-10T03:36:43.672Z,100.00
2022-08-10T03:39:52.987Z,100.00
2022-08-10T03:43:02.365Z,100.00
2022-08-10T03:46:12.265Z,100.00
2022-08-10T03:49:20.483Z,100.00
2022-08-10T03:52:27.333Z,100.00
2022-08-10T03:56:30.379Z,100.00
2022-08-10T03:59:02.035Z,100.00
2022-08-10T04:02:46.745Z,100.00
2022-08-10T04:05:38.742Z,100.00
2022-08-10T04:08:45.910Z,100.00
2022-08-10T04:11:53.716Z,100.00
2022-08-10T04:15:00.074Z,100.00
2022-08-10T04:18:06.750Z,100.00
2022-08-10T04:21:16.071Z,100.00
2022-08-10T04:24:26.917Z,100.00
2022-08-10T04:27:41.365Z,100.00
2022-08-10T04:30:49.440Z,100.00
2022-08-10T04:33:57.403Z,100.00
2022-08-10T04:37:09.055Z,98.92
2022-08-10T04:40:28.332Z,98.29
2022-08-10T04:43:38.344Z,95.92
2022-08-10T04:46:57.781Z,92.67
2022-08-10T04:50:06.303Z,90.86
2022-08-10T04:53:12.588Z,89.24
2022-08-10T04:56:18.835Z,90.65
2022-08-10T04:59:26.354Z,92.37
2022-08-10T05:02:32.672Z,92.14
2022-08-10T05:05:38.731Z,84.09
2022-08-10T05:08:44.841Z,84.75
2022-08-10T05:11:51.067Z,86.83
2022-08-10T05:14:59.028Z,88.22
2022-08-10T05:18:09.760Z,87.10
2022-08-10T05:22:01.388Z,86.05
2022-08-10T05:24:44.288Z,86.48
2022-08-10T05:27:52.390Z,88.90
2022-08-10T05:31:00.652Z,88.07
2022-08-10T05:34:06.865Z,88.24
2022-08-10T05:38:10.858Z,85.25
2022-08-10T05:40:57.283Z,83.80
2022-08-10T05:44:04.356Z,78.66
2022-08-10T05:47:12.887Z,81.54
2022-08-10T05:50:22.640Z,81.36
2022-08-10T05:54:02.909Z,82.41
2022-08-10T05:56:58.302Z,84.13
2022-08-10T06:00:11.249Z,85.81
2022-08-10T06:03:41.404Z,88.38
2022-08-10T06:06:48.978Z,83.13
2022-08-10T06:09:59.777Z,82.65
2022-08-10T06:13:30.736Z,89.01
2022-08-10T06:16:42.031Z,83.37
2022-08-10T06:19:51.092Z,81.54
2022-08-10T06:22:58.708Z,74.62
2022-08-10T06:26:09.554Z,71.70
2022-08-10T06:29:22.875Z,68.57
2022-08-10T06:32:31.299Z,69.16
2022-08-10T06:35:39.486Z,66.89
2022-08-10T06:38:48.072Z,63.64
2022-08-10T06:42:15.941Z,65.37
2022-08-10T06:45:29.173Z,58.61
2022-08-10T06:48:40.547Z,58.81
2022-08-10T06:51:57.206Z,56.96
2022-08-10T06:55:08.559Z,52.18
2022-08-10T06:58:17.027Z,50.81
2022-08-10T07:01:29.761Z,48.65
2022-08-10T07:04:42.319Z,46.75
2022-08-10T07:07:52.666Z,47.81
2022-08-10T07:10:59.639Z,47.65
2022-08-10T07:14:14.003Z,46.88
2022-08-10T07:17:23.715Z,46.93
2022-08-10T07:20:30.984Z,48.33
2022-08-10T07:23:57.781Z,47.26
2022-08-10T07:27:07.612Z,46.02
2022-08-10T07:30:14.370Z,45.13
2022-08-10T07:33:23.552Z,44.93
2022-08-10T07:36:32.972Z,45.87
2022-08-10T07:40:02.150Z,45.09
2022-08-10T07:43:11.126Z,44.94
2022-08-10T07:46:18.734Z,44.55
2022-08-10T07:49:27.696Z,44.20
2022-08-10T07:52:37.861Z,43.30
2022-08-10T07:56:04.052Z,42.85
2022-08-10T07:59:19.726Z,42.16
2022-08-10T08:02:30.205Z,42.34
2022-08-10T08:06:02.962Z,40.25
2022-08-10T08:09:10.468Z,39.92
2022-08-10T08:12:19.326Z,39.50
2022-08-10T08:16:20.239Z,38.88
2022-08-10T08:19:25.569Z,37.41
2022-08-10T08:24:08.885Z,36.43
2022-08-10T08:25:50.286Z,35.19
2022-08-10T08:28:59.211Z,35.45
2022-08-10T08:32:12.162Z,35.84
2022-08-10T08:35:20.204Z,36.72
2022-08-10T08:38:32.683Z,35.93
2022-08-10T08:42:09.289Z,34.86
2022-08-10T08:45:26.051Z,35.15
2022-08-10T08:48:47.576Z,34.91
2022-08-10T08:52:18.348Z,35.93
2022-08-10T08:56:03.281Z,36.15
2022-08-10T08:59:21.487Z,36.39
2022-08-10T09:02:54.437Z,36.01
2022-08-10T09:06:17.382Z,35.11
2022-08-10T09:09:38.941Z,35.25
2022-08-10T09:12:54.713Z,35.12
2022-08-10T09:16:16.891Z,34.60
2022-08-10T09:19:35.594Z,33.49
2022-08-10T09:22:57.624Z,33.54
2022-08-10T09:26:13.018Z,34.30
2022-08-10T09:29:27.039Z,34.35
2022-08-10T09:36:17.094Z,35.09
2022-08-10T09:36:32.265Z,37.77
2022-08-10T09:40:12.493Z,35.95
2022-08-10T09:43:32.063Z,37.41
2022-08-10T09:46:53.328Z,36.04
2022-08-10T09:50:15.513Z,36.25
2022-08-10T09:53:23.562Z,35.03
2022-08-10T09:56:37.628Z,33.21
2022-08-10T10:00:01.859Z,33.83
2022-08-10T10:03:20.568Z,34.77
2022-08-10T10:06:39.517Z,35.57
2022-08-10T10:09:58.118Z,35.67
2022-08-10T10:13:13.196Z,34.84
2022-08-10T10:16:34.726Z,36.52
2022-08-10T10:19:56.370Z,38.05
2022-08-10T10:23:15.352Z,36.73
2022-08-10T10:26:33.678Z,36.67
2022-08-10T10:29:58.502Z,35.12
2022-08-10T10:33:19.533Z,35.89
2022-08-10T10:36:27.915Z,37.12
2022-08-10T10:39:35.843Z,39.00
2022-08-10T10:42:50.840Z,37.82
2022-08-10T10:46:12.189Z,39.54
2022-08-10T10:49:28.048Z,40.77
2022-08-10T10:52:44.429Z,42.72
2022-08-10T10:56:15.132Z,42.63
2022-08-10T10:59:55.641Z,43.99
2022-08-10T11:03:22.564Z,44.62
2022-08-10T11:06:45.614Z,46.54
2022-08-10T11:10:08.685Z,45.38
2022-08-10T11:14:25.362Z,46.19
2022-08-10T11:17:06.754Z,46.35
2022-08-10T11:20:17.659Z,46.04
2022-08-10T11:23:34.709Z,43.11
2022-08-10T11:26:48.611Z,42.83
2022-08-10T11:30:07.664Z,43.80
2022-08-10T11:33:32.471Z,45.20
2022-08-10T11:36:46.752Z,46.18
2022-08-10T11:40:00.764Z,47.02
2022-08-10T11:43:14.770Z,48.17
2022-08-10T11:46:28.769Z,47.96
2022-08-10T11:49:45.766Z,47.76
2022-08-10T11:53:01.483Z,47.72
2022-08-10T11:56:11.367Z,47.49
2022-08-10T11:59:38.103Z,47.72
2022-08-10T12:02:48.535Z,48.93
2022-08-10T12:05:59.791Z,47.92
2022-08-10T12:10:08.634Z,48.90
2022-08-10T12:12:40.317Z,48.82
2022-08-10T12:15:54.730Z,49.61
2022-08-10T12:19:07.101Z,49.91
2022-08-10T12:22:21.119Z,55.22
2022-08-10T12:25:55.749Z,50.02
2022-08-10T12:29:12.151Z,45.89
2022-08-10T12:32:28.296Z,50.00
2022-08-10T12:35:40.153Z,51.08
2022-08-10T12:39:04.289Z,49.81
2022-08-10T12:42:38.916Z,45.64
2022-08-10T12:46:06.485Z,43.19
2022-08-10T12:49:20.362Z,44.58
2022-08-10T12:52:31.028Z,40.86
2022-08-10T12:55:42.573Z,39.84
2022-08-10T12:58:57.509Z,39.54
2022-08-10T13:02:10.839Z,39.11
2022-08-10T13:05:18.759Z,40.81
2022-08-10T13:08:45.407Z,38.40
2022-08-10T13:12:44.678Z,37.33
2022-08-10T13:15:49.042Z,40.64
2022-08-10T13:19:00.340Z,37.31
2022-08-10T13:22:09.325Z,39.08
2022-08-10T13:25:19.564Z,38.93
2022-08-10T13:28:39.605Z,37.75
2022-08-10T13:32:09.177Z,36.59
2022-08-10T13:35:19.009Z,37.22
2022-08-10T13:38:26.671Z,36.50
2022-08-10T13:41:36.692Z,37.10
2022-08-10T13:44:47.964Z,37.15
2022-08-10T13:48:07.742Z,38.25
2022-08-10T13:51:15.525Z,37.27
2022-08-10T13:54:26.052Z,37.37
2022-08-10T13:57:36.009Z,37.12
2022-08-10T14:00:52.454Z,39.84
2022-08-10T14:04:00.916Z,41.27
2022-08-10T14:07:07.575Z,41.17
2022-08-10T14:10:17.502Z,40.85
2022-08-10T14:13:24.796Z,39.37
2022-08-10T14:16:34.571Z,38.64
2022-08-10T14:19:43.497Z,40.20
2022-08-10T14:22:50.139Z,40.50
2022-08-10T14:26:02.293Z,41.55
2022-08-10T14:29:19.589Z,38.48
2022-08-10T14:32:31.853Z,41.44
2022-08-10T14:36:19.561Z,41.29
2022-08-10T14:39:10.480Z,40.14
2022-08-10T14:42:27.273Z,42.67
2022-08-10T14:45:37.380Z,40.93
2022-08-10T14:48:49.089Z,40.81
2022-08-10T14:52:01.153Z,42.70
2022-08-10T14:55:19.837Z,41.88
2022-08-10T14:58:28.286Z,44.32
2022-08-10T15:01:59.817Z,41.13
2022-08-10T15:05:08.944Z,39.59
2022-08-10T15:08:16.331Z,38.99
2022-08-10T15:12:15.019Z,39.73
2022-08-10T15:14:51.379Z,41.08
2022-08-10T15:17:59.875Z,41.48
2022-08-10T15:21:17.361Z,41.39
2022-08-10T15:24:38.954Z,41.45
2022-08-10T15:27:53.907Z,41.03
2022-08-10T15:31:02.344Z,41.71
2022-08-10T15:34:28.920Z,43.07
2022-08-10T15:37:47.254Z,45.35
2022-08-10T15:40:57.885Z,46.41
2022-08-10T15:44:06.599Z,45.59
2022-08-10T15:47:18.603Z,43.18
2022-08-10T15:50:29.277Z,44.97
2022-08-10T15:53:49.074Z,44.70
2022-08-10T15:57:02.664Z,42.63
2022-08-10T16:00:12.407Z,44.67
2022-08-10T16:03:25.852Z,44.53
2022-08-10T16:06:36.015Z,44.03
2022-08-10T16:10:26.234Z,43.97
2022-08-10T16:14:00.087Z,43.49
2022-08-10T16:16:51.297Z,44.19
2022-08-10T16:20:00.415Z,44.76
2022-08-10T16:23:08.741Z,44.57
2022-08-10T16:26:19.072Z,44.98
2022-08-10T16:29:28.830Z,46.24
2022-08-10T16:32:37.052Z,45.31
2022-08-10T16:35:49.834Z,47.08
2022-08-10T16:38:56.997Z,48.26
2022-08-10T16:42:09.663Z,48.60
2022-08-10T16:45:21.829Z,49.70
2022-08-10T16:48:49.137Z,51.05
2022-08-10T16:51:57.801Z,51.69
2022-08-10T16:55:23.437Z,51.81
2022-08-10T16:58:36.812Z,53.60
2022-08-10T17:01:44.279Z,55.96
2022-08-10T17:04:59.941Z,54.61
2022-08-10T17:08:10.506Z,57.48
2022-08-10T17:11:17.823Z,55.60
2022-08-10T17:14:27.975Z,62.17
2022-08-10T17:17:38.694Z,64.63
2022-08-10T17:20:45.865Z,66.96
2022-08-10T17:23:56.626Z,66.18
2022-08-10T17:28:05.748Z,61.05
2022-08-10T17:30:53.444Z,62.60
2022-08-10T17:34:10.614Z,61.24
2022-08-10T17:37:20.577Z,60.58
2022-08-10T17:40:29.837Z,62.35
2022-08-10T17:43:58.201Z,62.88
2022-08-10T17:47:11.153Z,64.17
2022-08-10T17:50:24.079Z,56.25
2022-08-10T17:53:40.156Z,55.46
2022-08-10T17:56:48.274Z,54.66
2022-08-10T17:59:55.552Z,59.37
2022-08-10T18:03:04.251Z,63.19
2022-08-10T18:06:16.410Z,65.44
2022-08-10T18:09:30.977Z,66.84
2022-08-10T18:12:44.773Z,65.84
2022-08-10T18:15:52.223Z,64.00
2022-08-10T18:19:08.319Z,64.05
2022-08-10T18:22:17.266Z,63.88
2022-08-10T18:25:27.116Z,63.56
2022-08-10T18:28:35.912Z,64.30
2022-08-10T18:31:44.937Z,63.40
2022-08-10T18:34:55.128Z,62.46
2022-08-10T18:38:04.512Z,62.97
2022-08-10T18:41:15.654Z,63.52
2022-08-10T18:44:23.981Z,65.08
2022-08-10T18:47:34.878Z,66.22
2022-08-10T18:50:49.264Z,66.48
2022-08-10T18:54:00.764Z,68.78
2022-08-10T18:57:14.359Z,70.84
2022-08-10T19:00:22.260Z,73.45
2022-08-10T19:03:54.163Z,74.10
2022-08-10T19:07:24.362Z,73.57
2022-08-10T19:10:39.753Z,73.83
2022-08-10T19:13:55.106Z,76.69
2022-08-10T19:17:10.411Z,74.02
2022-08-10T19:20:29.734Z,74.33
2022-08-10T19:24:01.340Z,72.66
2022-08-10T19:27:16.432Z,73.98
2022-08-10T19:30:27.345Z,73.92
2022-08-10T19:34:11.379Z,72.90
2022-08-10T19:37:32.574Z,73.80
2022-08-10T19:40:47.076Z,73.94
2022-08-10T19:44:02.403Z,73.44
2022-08-10T19:47:25.811Z,73.95
2022-08-10T19:50:38.710Z,75.05
2022-08-10T19:54:00.532Z,76.90
2022-08-10T19:57:14.460Z,79.22
2022-08-10T20:00:26.922Z,79.35
2022-08-10T20:03:50.709Z,79.26
2022-08-10T20:07:09.559Z,81.20
2022-08-10T20:10:20.806Z,81.55
2022-08-10T20:13:35.244Z,80.39
2022-08-10T20:16:43.595Z,81.74
2022-08-10T20:19:57.738Z,82.16
2022-08-10T20:23:15.260Z,82.90
2022-08-10T20:26:24.835Z,83.66
2022-08-10T20:29:57.428Z,83.18
2022-08-10T20:33:11.986Z,83.96
2022-08-10T20:36:25.631Z,84.02
2022-08-10T20:39:49.927Z,85.10
2022-08-10T20:43:08.590Z,85.76
2022-08-10T20:46:24.194Z,85.77
2022-08-10T20:49:54.083Z,86.82
2022-08-10T20:53:03.018Z,88.34
2022-08-10T20:56:15.889Z,88.21
2022-08-10T21:00:02.350Z,88.94
2022-08-10T21:03:31.873Z,88.50
2022-08-10T21:06:55.259Z,88.45
2022-08-10T21:10:07.890Z,89.09
2022-08-10T21:13:35.732Z,90.27
2022-08-10T21:16:55.356Z,91.59
2022-08-10T21:20:15.748Z,92.53
2022-08-10T21:23:24.627Z,93.42
2022-08-10T21:26:48.918Z,93.63
2022-08-10T21:30:08.750Z,94.87
2022-08-10T21:33:22.375Z,94.76
2022-08-10T21:36:33.797Z,95.37
2022-08-10T21:39:59.608Z,96.22
2022-08-10T21:43:44.717Z,97.42
2022-08-10T21:47:39.658Z,95.05
2022-08-10T21:51:06.599Z,93.63
2022-08-10T21:54:37.751Z,95.43
2022-08-10T21:58:08.820Z,96.82
2022-08-10T22:01:40.375Z,98.16
2022-08-10T22:05:04.307Z,98.30
2022-08-10T22:08:31.105Z,98.76
2022-08-10T22:12:01.070Z,100.00
2022-08-10T22:16:03.200Z,98.70
2022-08-10T22:19:19.531Z,97.74
2022-08-10T22:22:57.735Z,99.05
2022-08-10T22:26:31.779Z,99.58
2022-08-10T22:30:01.909Z,100.00
2022-08-10T22:33:40.971Z,100.00
2022-08-10T22:37:25.751Z,100.00
2022-08-10T22:40:49.760Z,100.00
2022-08-10T22:44:18.336Z,100.00
2022-08-10T22:47:46.937Z,100.00
2022-08-10T22:50:56.495Z,100.00
2022-08-10T22:54:30.729Z,100.00
2022-08-10T22:58:03.066Z,100.00
2022-08-10T23:01:36.199Z,100.00
2022-08-10T23:04:49.847Z,100.00
2022-08-10T23:08:00.815Z,100.00
2022-08-10T23:11:09.901Z,100.00
2022-08-10T23:14:23.815Z,100.00
2022-08-10T23:18:01.165Z,100.00
2022-08-10T23:21:15.116Z,100.00
2022-08-10T23:24:28.672Z,100.00
2022-08-10T23:27:38.457Z,100.00
2022-08-10T23:30:51.611Z,100.00
2022-08-10T23:34:00.909Z,100.00
2022-08-10T23:37:10.330Z,100.00
2022-08-10T23:40:19.240Z,100.00
2022-08-10T23:43:46.738Z,100.00
2022-08-10T23:46:55.235Z,100.00
2022-08-10T23:50:03.707Z,100.00
2022-08-10T23:53:13.475Z,100.00
2022-08-10T23:56:22.198Z,100.00
2022-08-10T23:59:31.315Z,100.00
